sensor_id;sensor_type;location;lat;lon;timestamp;pressure;altitude;pressure_sealevel;temperature;humidity
77250;BME280;66287;42.658;27.568;2023-07-29T00:01:11;67877.22;;;-144.13;100.00
77250;BME280;66287;42.658;27.568;2023-07-29T00:03:36;67877.22;;;-144.13;100.00
77250;BME280;66287;42.658;27.568;2023-07-29T00:06:01;67877.22;;;-144.13;100.00
77250;BME280;66287;42.658;27.568;2023-07-29T00:08:27;67877.22;;;-144.13;100.00
77250;BME280;66287;42.658;27.568;2023-07-29T00:10:52;67877.22;;;-144.13;100.00
77250;BME280;66287;42.658;27.568;2023-07-29T00:13:18;67877.22;;;-144.13;100.00
77250;BME280;66287;42.658;27.568;2023-07-29T00:15:43;67877.22;;;-144.13;100.00
77250;BME280;66287;42.658;27.568;2023-07-29T00:18:08;67877.22;;;-144.13;100.00
77250;BME280;66287;42.658;27.568;2023-07-29T00:20:34;67877.22;;;-144.13;100.00
77250;BME280;66287;42.658;27.568;2023-07-29T00:22:59;67877.22;;;-144.13;100.00
77250;BME280;66287;42.658;27.568;2023-07-29T00:25:26;67877.22;;;-144.13;100.00
77250;BME280;66287;42.658;27.568;2023-07-29T00:27:52;67877.22;;;-144.13;100.00
77250;BME280;66287;42.658;27.568;2023-07-29T00:30:20;67877.22;;;-144.13;100.00
77250;BME280;66287;42.658;27.568;2023-07-29T00:32:45;67877.22;;;-144.13;100.00
77250;BME280;66287;42.658;27.568;2023-07-29T00:35:12;67877.22;;;-144.13;100.00
77250;BME280;66287;42.658;27.568;2023-07-29T00:37:37;67877.22;;;-144.13;100.00
77250;BME280;66287;42.658;27.568;2023-07-29T00:40:04;67877.22;;;-144.13;100.00
77250;BME280;66287;42.658;27.568;2023-07-29T00:42:33;67877.22;;;-144.13;100.00
77250;BME280;66287;42.658;27.568;2023-07-29T00:44:59;67877.22;;;-144.13;100.00
77250;BME280;66287;42.658;27.568;2023-07-29T00:47:25;67877.22;;;-144.13;100.00
77250;BME280;66287;42.658;27.568;2023-07-29T00:49:51;67877.22;;;-144.13;100.00
77250;BME280;66287;42.658;27.568;2023-07-29T00:52:16;67877.22;;;-144.13;100.00
77250;BME280;66287;42.658;27.568;2023-07-29T00:54:42;67877.22;;;-144.13;100.00
77250;BME280;66287;42.658;27.568;2023-07-29T00:57:10;67877.22;;;-144.13;100.00
77250;BME280;66287;42.658;27.568;2023-07-29T00:59:39;67877.22;;;-144.13;100.00
77250;BME280;66287;42.658;27.568;2023-07-29T01:02:05;67877.22;;;-144.13;100.00
77250;BME280;66287;42.658;27.568;2023-07-29T01:04:31;67877.22;;;-144.13;100.00
77250;BME280;66287;42.658;27.568;2023-07-29T01:12:02;67877.22;;;-144.13;100.00
77250;BME280;66287;42.658;27.568;2023-07-29T01:16:58;67877.22;;;-144.13;100.00
77250;BME280;66287;42.658;27.568;2023-07-29T01:22:03;67877.22;;;-144.13;100.00
77250;BME280;66287;42.658;27.568;2023-07-29T01:24:29;67877.22;;;-144.13;100.00
77250;BME280;66287;42.658;27.568;2023-07-29T01:26:54;67877.22;;;-144.13;100.00
77250;BME280;66287;42.658;27.568;2023-07-29T01:29:21;67877.22;;;-144.13;100.00
77250;BME280;66287;42.658;27.568;2023-07-29T01:31:47;67877.22;;;-144.13;100.00
77250;BME280;66287;42.658;27.568;2023-07-29T01:34:22;67877.22;;;-144.13;100.00
77250;BME280;66287;42.658;27.568;2023-07-29T01:36:48;67877.22;;;-144.13;100.00
77250;BME280;66287;42.658;27.568;2023-07-29T01:39:15;67877.22;;;-144.13;100.00
77250;BME280;66287;42.658;27.568;2023-07-29T01:41:42;67877.22;;;-144.13;100.00
77250;BME280;66287;42.658;27.568;2023-07-29T01:44:09;67877.22;;;-144.13;100.00
77250;BME280;66287;42.658;27.568;2023-07-29T01:46:34;67877.22;;;-144.13;100.00
77250;BME280;66287;42.658;27.568;2023-07-29T01:49:00;67877.22;;;-144.13;100.00
77250;BME280;66287;42.658;27.568;2023-07-29T01:51:25;67877.22;;;-144.13;100.00
77250;BME280;66287;42.658;27.568;2023-07-29T01:53:51;67877.22;;;-144.13;100.00
77250;BME280;66287;42.658;27.568;2023-07-29T01:56:17;67877.22;;;-144.13;100.00
77250;BME280;66287;42.658;27.568;2023-07-29T01:58:50;67877.22;;;-144.13;100.00
77250;BME280;66287;42.658;27.568;2023-07-29T02:01:16;67877.22;;;-144.13;100.00
77250;BME280;66287;42.658;27.568;2023-07-29T02:03:41;67877.22;;;-144.13;100.00
77250;BME280;66287;42.658;27.568;2023-07-29T02:06:07;67877.22;;;-144.13;100.00
77250;BME280;66287;42.658;27.568;2023-07-29T02:08:32;67877.22;;;-144.13;100.00
77250;BME280;66287;42.658;27.568;2023-07-29T02:10:58;67877.22;;;-144.13;100.00
77250;BME280;66287;42.658;27.568;2023-07-29T02:13:23;67877.22;;;-144.13;100.00
77250;BME280;66287;42.658;27.568;2023-07-29T02:15:48;67877.22;;;-144.13;100.00
77250;BME280;66287;42.658;27.568;2023-07-29T02:18:14;67877.22;;;-144.13;100.00
77250;BME280;66287;42.658;27.568;2023-07-29T02:20:39;67877.22;;;-144.13;100.00
77250;BME280;66287;42.658;27.568;2023-07-29T02:23:06;67877.22;;;-144.13;100.00
77250;BME280;66287;42.658;27.568;2023-07-29T02:25:31;67877.22;;;-144.13;100.00
77250;BME280;66287;42.658;27.568;2023-07-29T02:27:59;67877.22;;;-144.13;100.00
77250;BME280;66287;42.658;27.568;2023-07-29T02:30:25;67877.22;;;-144.13;100.00
77250;BME280;66287;42.658;27.568;2023-07-29T02:32:50;67877.22;;;-144.13;100.00
77250;BME280;66287;42.658;27.568;2023-07-29T02:35:16;67877.22;;;-144.13;100.00
77250;BME280;66287;42.658;27.568;2023-07-29T02:37:41;67877.22;;;-144.13;100.00
77250;BME280;66287;42.658;27.568;2023-07-29T02:40:07;67877.22;;;-144.13;100.00
77250;BME280;66287;42.658;27.568;2023-07-29T02:42:33;67877.22;;;-144.13;100.00
77250;BME280;66287;42.658;27.568;2023-07-29T02:44:58;67877.22;;;-144.13;100.00
77250;BME280;66287;42.658;27.568;2023-07-29T02:47:24;67877.22;;;-144.13;100.00
77250;BME280;66287;42.658;27.568;2023-07-29T02:49:49;67877.22;;;-144.13;100.00
77250;BME280;66287;42.658;27.568;2023-07-29T02:52:15;67877.22;;;-144.13;100.00
77250;BME280;66287;42.658;27.568;2023-07-29T02:54:41;67877.22;;;-144.13;100.00
77250;BME280;66287;42.658;27.568;2023-07-29T02:57:06;67877.22;;;-144.13;100.00
77250;BME280;66287;42.658;27.568;2023-07-29T02:59:31;67877.22;;;-144.13;100.00
77250;BME280;66287;42.658;27.568;2023-07-29T03:01:57;67877.22;;;-144.13;100.00
77250;BME280;66287;42.658;27.568;2023-07-29T03:04:22;67877.22;;;-144.13;100.00
77250;BME280;66287;42.658;27.568;2023-07-29T03:06:49;67877.22;;;-144.13;100.00
77250;BME280;66287;42.658;27.568;2023-07-29T03:09:15;67877.22;;;-144.13;100.00
77250;BME280;66287;42.658;27.568;2023-07-29T03:11:40;67877.22;;;-144.13;100.00
77250;BME280;66287;42.658;27.568;2023-07-29T03:14:07;67877.22;;;-144.13;100.00
77250;BME280;66287;42.658;27.568;2023-07-29T03:16:32;67877.22;;;-144.13;100.00
77250;BME280;66287;42.658;27.568;2023-07-29T03:18:59;67877.22;;;-144.13;100.00
77250;BME280;66287;42.658;27.568;2023-07-29T03:21:25;67877.22;;;-144.13;100.00
77250;BME280;66287;42.658;27.568;2023-07-29T03:23:51;67877.22;;;-144.13;100.00
77250;BME280;66287;42.658;27.568;2023-07-29T03:26:17;67877.22;;;-144.13;100.00
77250;BME280;66287;42.658;27.568;2023-07-29T03:28:42;67877.22;;;-144.13;100.00
77250;BME280;66287;42.658;27.568;2023-07-29T03:31:08;67877.22;;;-144.13;100.00
77250;BME280;66287;42.658;27.568;2023-07-29T03:33:34;67877.22;;;-144.13;100.00
77250;BME280;66287;42.658;27.568;2023-07-29T03:35:59;67877.22;;;-144.13;100.00
77250;BME280;66287;42.658;27.568;2023-07-29T03:38:25;67877.22;;;-144.13;100.00
77250;BME280;66287;42.658;27.568;2023-07-29T03:40:52;67877.22;;;-144.13;100.00
77250;BME280;66287;42.658;27.568;2023-07-29T03:43:18;67877.22;;;-144.13;100.00
77250;BME280;66287;42.658;27.568;2023-07-29T03:45:44;67877.22;;;-144.13;100.00
77250;BME280;66287;42.658;27.568;2023-07-29T03:48:09;67877.22;;;-144.13;100.00
77250;BME280;66287;42.658;27.568;2023-07-29T03:50:35;67877.22;;;-144.13;100.00
77250;BME280;66287;42.658;27.568;2023-07-29T03:53:01;67877.22;;;-144.13;100.00
77250;BME280;66287;42.658;27.568;2023-07-29T03:55:27;67877.22;;;-144.13;100.00
77250;BME280;66287;42.658;27.568;2023-07-29T03:57:52;67877.22;;;-144.13;100.00
77250;BME280;66287;42.658;27.568;2023-07-29T04:00:17;67877.22;;;-144.13;100.00
77250;BME280;66287;42.658;27.568;2023-07-29T04:02:47;67877.22;;;-144.13;100.00
77250;BME280;66287;42.658;27.568;2023-07-29T04:05:12;67877.22;;;-144.13;100.00
77250;BME280;66287;42.658;27.568;2023-07-29T04:07:38;67877.22;;;-144.13;100.00
77250;BME280;66287;42.658;27.568;2023-07-29T04:10:04;67877.22;;;-144.13;100.00
77250;BME280;66287;42.658;27.568;2023-07-29T04:12:30;67877.22;;;-144.13;100.00
77250;BME280;66287;42.658;27.568;2023-07-29T04:14:56;67877.22;;;-144.13;100.00
77250;BME280;66287;42.658;27.568;2023-07-29T04:17:21;67877.22;;;-144.13;100.00
77250;BME280;66287;42.658;27.568;2023-07-29T04:19:47;67877.22;;;-144.13;100.00
77250;BME280;66287;42.658;27.568;2023-07-29T04:22:12;67877.22;;;-144.13;100.00
77250;BME280;66287;42.658;27.568;2023-07-29T04:24:37;67877.22;;;-144.13;100.00
77250;BME280;66287;42.658;27.568;2023-07-29T04:27:03;67877.22;;;-144.13;100.00
77250;BME280;66287;42.658;27.568;2023-07-29T04:29:28;67877.22;;;-144.13;100.00
77250;BME280;66287;42.658;27.568;2023-07-29T04:31:54;67877.22;;;-144.13;100.00
77250;BME280;66287;42.658;27.568;2023-07-29T04:34:19;67877.22;;;-144.13;100.00
77250;BME280;66287;42.658;27.568;2023-07-29T04:36:45;67877.22;;;-144.13;100.00
77250;BME280;66287;42.658;27.568;2023-07-29T04:39:11;67877.22;;;-144.13;100.00
77250;BME280;66287;42.658;27.568;2023-07-29T04:41:36;67877.22;;;-144.13;100.00
77250;BME280;66287;42.658;27.568;2023-07-29T04:44:02;67877.22;;;-144.13;100.00
77250;BME280;66287;42.658;27.568;2023-07-29T04:46:27;67877.22;;;-144.13;100.00
77250;BME280;66287;42.658;27.568;2023-07-29T04:48:53;67877.22;;;-144.13;100.00
77250;BME280;66287;42.658;27.568;2023-07-29T04:51:18;67877.22;;;-144.13;100.00
77250;BME280;66287;42.658;27.568;2023-07-29T04:53:43;67877.22;;;-144.13;100.00
77250;BME280;66287;42.658;27.568;2023-07-29T04:56:09;67877.22;;;-144.13;100.00
77250;BME280;66287;42.658;27.568;2023-07-29T04:58:34;67877.22;;;-144.13;100.00
77250;BME280;66287;42.658;27.568;2023-07-29T05:01:01;67877.22;;;-144.13;100.00
77250;BME280;66287;42.658;27.568;2023-07-29T05:03:26;67877.22;;;-144.13;100.00
77250;BME280;66287;42.658;27.568;2023-07-29T05:05:52;67877.22;;;-144.13;100.00
77250;BME280;66287;42.658;27.568;2023-07-29T05:08:20;67877.22;;;-144.13;100.00
77250;BME280;66287;42.658;27.568;2023-07-29T05:10:48;67877.22;;;-144.13;100.00
77250;BME280;66287;42.658;27.568;2023-07-29T05:13:14;67877.22;;;-144.13;100.00
77250;BME280;66287;42.658;27.568;2023-07-29T05:15:39;67877.22;;;-144.13;100.00
77250;BME280;66287;42.658;27.568;2023-07-29T05:18:05;67877.22;;;-144.13;100.00
77250;BME280;66287;42.658;27.568;2023-07-29T05:20:30;67877.22;;;-144.13;100.00
77250;BME280;66287;42.658;27.568;2023-07-29T05:22:55;67877.22;;;-144.13;100.00
77250;BME280;66287;42.658;27.568;2023-07-29T05:25:21;67877.22;;;-144.13;100.00
77250;BME280;66287;42.658;27.568;2023-07-29T05:27:46;67877.22;;;-144.13;100.00
77250;BME280;66287;42.658;27.568;2023-07-29T05:30:12;67877.22;;;-144.13;100.00
77250;BME280;66287;42.658;27.568;2023-07-29T05:32:37;67877.22;;;-144.13;100.00
77250;BME280;66287;42.658;27.568;2023-07-29T05:35:05;67877.22;;;-144.13;100.00
77250;BME280;66287;42.658;27.568;2023-07-29T05:37:30;67877.22;;;-144.13;100.00
77250;BME280;66287;42.658;27.568;2023-07-29T05:39:56;67877.22;;;-144.13;100.00
77250;BME280;66287;42.658;27.568;2023-07-29T05:42:21;67877.22;;;-144.13;100.00
77250;BME280;66287;42.658;27.568;2023-07-29T05:44:47;67877.22;;;-144.13;100.00
77250;BME280;66287;42.658;27.568;2023-07-29T05:47:12;67877.22;;;-144.13;100.00
77250;BME280;66287;42.658;27.568;2023-07-29T05:49:37;67877.22;;;-144.13;100.00
77250;BME280;66287;42.658;27.568;2023-07-29T05:52:03;67877.22;;;-144.13;100.00
77250;BME280;66287;42.658;27.568;2023-07-29T05:54:28;67877.22;;;-144.13;100.00
77250;BME280;66287;42.658;27.568;2023-07-29T05:56:54;67877.22;;;-144.13;100.00
77250;BME280;66287;42.658;27.568;2023-07-29T05:59:19;67877.22;;;-144.13;100.00
77250;BME280;66287;42.658;27.568;2023-07-29T06:01:45;67877.22;;;-144.13;100.00
77250;BME280;66287;42.658;27.568;2023-07-29T06:04:11;67877.22;;;-144.13;100.00
77250;BME280;66287;42.658;27.568;2023-07-29T06:06:37;67877.22;;;-144.13;100.00
77250;BME280;66287;42.658;27.568;2023-07-29T06:09:02;67877.22;;;-144.13;100.00
77250;BME280;66287;42.658;27.568;2023-07-29T06:11:28;67877.22;;;-144.13;100.00
77250;BME280;66287;42.658;27.568;2023-07-29T06:13:53;67877.22;;;-144.13;100.00
77250;BME280;66287;42.658;27.568;2023-07-29T06:16:19;67877.22;;;-144.13;100.00
77250;BME280;66287;42.658;27.568;2023-07-29T06:18:45;67877.22;;;-144.13;100.00
77250;BME280;66287;42.658;27.568;2023-07-29T06:21:10;67877.22;;;-144.13;100.00
77250;BME280;66287;42.658;27.568;2023-07-29T06:23:42;67877.22;;;-144.13;100.00
77250;BME280;66287;42.658;27.568;2023-07-29T06:26:07;67877.22;;;-144.13;100.00
77250;BME280;66287;42.658;27.568;2023-07-29T06:28:33;67877.22;;;-144.13;100.00
77250;BME280;66287;42.658;27.568;2023-07-29T06:30:59;67877.22;;;-144.13;100.00
77250;BME280;66287;42.658;27.568;2023-07-29T06:33:24;67877.22;;;-144.13;100.00
77250;BME280;66287;42.658;27.568;2023-07-29T06:35:49;67877.22;;;-144.13;100.00
77250;BME280;66287;42.658;27.568;2023-07-29T06:38:15;67877.22;;;-144.13;100.00
77250;BME280;66287;42.658;27.568;2023-07-29T06:40:44;67877.22;;;-144.13;100.00
77250;BME280;66287;42.658;27.568;2023-07-29T06:43:09;67877.22;;;-144.13;100.00
77250;BME280;66287;42.658;27.568;2023-07-29T06:45:35;67877.22;;;-144.13;100.00
77250;BME280;66287;42.658;27.568;2023-07-29T06:48:00;67877.22;;;-144.13;100.00
77250;BME280;66287;42.658;27.568;2023-07-29T06:50:25;67877.22;;;-144.13;100.00
77250;BME280;66287;42.658;27.568;2023-07-29T06:52:51;67877.22;;;-144.13;100.00
77250;BME280;66287;42.658;27.568;2023-07-29T06:55:16;67877.22;;;-144.13;100.00
77250;BME280;66287;42.658;27.568;2023-07-29T06:57:42;99905.72;;;34.52;28.37
77250;BME280;66287;42.658;27.568;2023-07-29T07:00:07;99902.50;;;34.73;29.08
77250;BME280;66287;42.658;27.568;2023-07-29T07:02:34;99901.63;;;34.69;27.69
77250;BME280;66287;42.658;27.568;2023-07-29T07:04:59;99897.78;;;34.77;28.08
77250;BME280;66287;42.658;27.568;2023-07-29T07:07:25;99907.34;;;35.14;27.48
77250;BME280;66287;42.658;27.568;2023-07-29T07:09:50;99901.13;;;35.05;26.76
77250;BME280;66287;42.658;27.568;2023-07-29T07:12:15;99901.97;;;35.51;26.98
77250;BME280;66287;42.658;27.568;2023-07-29T07:14:41;99899.81;;;35.22;27.37
77250;BME280;66287;42.658;27.568;2023-07-29T07:17:06;99909.75;;;35.35;26.92
77250;BME280;66287;42.658;27.568;2023-07-29T07:19:32;99901.75;;;35.64;25.83
77250;BME280;66287;42.658;27.568;2023-07-29T07:21:57;99898.97;;;35.41;25.95
77250;BME280;66287;42.658;27.568;2023-07-29T07:24:22;99894.09;;;35.87;26.36
77250;BME280;66287;42.658;27.568;2023-07-29T07:26:48;99889.56;;;36.09;25.57
77250;BME280;66287;42.658;27.568;2023-07-29T07:29:14;99891.41;;;36.24;25.42
77250;BME280;66287;42.658;27.568;2023-07-29T07:31:39;99890.84;;;36.45;25.60
77250;BME280;66287;42.658;27.568;2023-07-29T07:34:04;99888.94;;;36.52;24.67
77250;BME280;66287;42.658;27.568;2023-07-29T07:36:30;99882.94;;;36.57;24.13
77250;BME280;66287;42.658;27.568;2023-07-29T07:38:56;99884.06;;;36.83;24.09
77250;BME280;66287;42.658;27.568;2023-07-29T07:41:21;99880.06;;;36.87;23.71
77250;BME280;66287;42.658;27.568;2023-07-29T07:43:46;99881.41;;;36.97;23.71
77250;BME280;66287;42.658;27.568;2023-07-29T07:46:12;99882.31;;;37.08;23.15
77250;BME280;66287;42.658;27.568;2023-07-29T07:48:38;99873.19;;;37.25;23.22
77250;BME280;66287;42.658;27.568;2023-07-29T07:51:12;99871.00;;;37.52;22.84
77250;BME280;66287;42.658;27.568;2023-07-29T07:53:38;99870.41;;;37.29;22.48
77250;BME280;66287;42.658;27.568;2023-07-29T07:56:04;99869.28;;;37.41;22.79
77250;BME280;66287;42.658;27.568;2023-07-29T07:58:29;99859.66;;;37.49;22.58
77250;BME280;66287;42.658;27.568;2023-07-29T08:01:01;99860.09;;;37.58;22.41
77250;BME280;66287;42.658;27.568;2023-07-29T08:03:26;99859.72;;;37.56;21.63
77250;BME280;66287;42.658;27.568;2023-07-29T08:05:52;99860.56;;;37.64;21.76
77250;BME280;66287;42.658;27.568;2023-07-29T08:08:17;99861.47;;;37.71;22.57
77250;BME280;66287;42.658;27.568;2023-07-29T08:10:42;99855.00;;;37.71;22.40
77250;BME280;66287;42.658;27.568;2023-07-29T08:13:08;99860.25;;;37.72;21.74
77250;BME280;66287;42.658;27.568;2023-07-29T08:15:33;99850.56;;;37.73;21.77
77250;BME280;66287;42.658;27.568;2023-07-29T08:17:59;99851.44;;;37.88;21.00
77250;BME280;66287;42.658;27.568;2023-07-29T08:20:24;99854.75;;;37.97;21.95
77250;BME280;66287;42.658;27.568;2023-07-29T08:22:49;99855.84;;;37.82;22.00
77250;BME280;66287;42.658;27.568;2023-07-29T08:25:15;99858.00;;;38.03;21.31
77250;BME280;66287;42.658;27.568;2023-07-29T08:27:40;99849.19;;;38.15;20.72
77250;BME280;66287;42.658;27.568;2023-07-29T08:30:06;99852.81;;;38.12;20.76
77250;BME280;66287;42.658;27.568;2023-07-29T08:32:32;99859.31;;;38.16;21.45
77250;BME280;66287;42.658;27.568;2023-07-29T08:34:57;99852.72;;;38.01;20.11
77250;BME280;66287;42.658;27.568;2023-07-29T08:37:23;99849.53;;;38.10;21.69
77250;BME280;66287;42.658;27.568;2023-07-29T08:39:48;99846.78;;;38.13;21.55
77250;BME280;66287;42.658;27.568;2023-07-29T08:42:13;99845.97;;;38.13;21.11
77250;BME280;66287;42.658;27.568;2023-07-29T08:44:42;99841.03;;;38.06;21.29
77250;BME280;66287;42.658;27.568;2023-07-29T08:47:08;99834.13;;;37.97;21.54
77250;BME280;66287;42.658;27.568;2023-07-29T08:49:33;99827.25;;;38.01;22.32
77250;BME280;66287;42.658;27.568;2023-07-29T08:51:59;99817.66;;;38.13;22.10
77250;BME280;66287;42.658;27.568;2023-07-29T08:54:26;99828.09;;;38.05;21.52
77250;BME280;66287;42.658;27.568;2023-07-29T08:56:51;99817.19;;;38.07;22.39
77250;BME280;66287;42.658;27.568;2023-07-29T08:59:17;99815.94;;;38.01;22.68
77250;BME280;66287;42.658;27.568;2023-07-29T09:01:43;99822.78;;;37.93;22.21
77250;BME280;66287;42.658;27.568;2023-07-29T09:04:08;99817.16;;;38.04;22.79
77250;BME280;66287;42.658;27.568;2023-07-29T09:06:34;99812.38;;;38.18;21.88
77250;BME280;66287;42.658;27.568;2023-07-29T09:09:00;99822.03;;;38.07;21.93
77250;BME280;66287;42.658;27.568;2023-07-29T09:11:26;99821.19;;;37.99;21.75
77250;BME280;66287;42.658;27.568;2023-07-29T09:13:52;99808.34;;;38.12;21.35
77250;BME280;66287;42.658;27.568;2023-07-29T09:16:18;99810.28;;;38.05;21.57
77250;BME280;66287;42.658;27.568;2023-07-29T09:18:47;99821.72;;;38.26;21.15
77250;BME280;66287;42.658;27.568;2023-07-29T09:21:12;99817.66;;;38.20;21.42
77250;BME280;66287;42.658;27.568;2023-07-29T09:23:40;99819.16;;;38.00;21.02
77250;BME280;66287;42.658;27.568;2023-07-29T09:26:06;99823.75;;;38.25;20.42
77250;BME280;66287;42.658;27.568;2023-07-29T09:28:33;99818.94;;;38.40;19.77
77250;BME280;66287;42.658;27.568;2023-07-29T09:30:59;99824.25;;;38.52;20.11
77250;BME280;66287;42.658;27.568;2023-07-29T09:33:25;99823.06;;;38.60;19.22
77250;BME280;66287;42.658;27.568;2023-07-29T09:35:51;99819.78;;;38.48;19.17
77250;BME280;66287;42.658;27.568;2023-07-29T09:38:16;99819.03;;;38.69;19.99
77250;BME280;66287;42.658;27.568;2023-07-29T09:40:41;99825.03;;;38.49;17.93
77250;BME280;66287;42.658;27.568;2023-07-29T09:43:08;99825.81;;;38.36;18.26
77250;BME280;66287;42.658;27.568;2023-07-29T09:45:34;99835.22;;;38.61;18.90
77250;BME280;66287;42.658;27.568;2023-07-29T09:48:00;99831.59;;;38.68;17.93
77250;BME280;66287;42.658;27.568;2023-07-29T09:50:27;99824.28;;;38.56;19.32
77250;BME280;66287;42.658;27.568;2023-07-29T09:52:54;99824.72;;;38.76;18.21
77250;BME280;66287;42.658;27.568;2023-07-29T09:55:24;99826.31;;;38.66;19.18
77250;BME280;66287;42.658;27.568;2023-07-29T09:57:54;99814.88;;;38.31;18.02
77250;BME280;66287;42.658;27.568;2023-07-29T10:00:19;99807.53;;;38.19;17.84
77250;BME280;66287;42.658;27.568;2023-07-29T10:02:45;99817.78;;;38.52;17.97
77250;BME280;66287;42.658;27.568;2023-07-29T10:05:10;99819.00;;;38.54;18.38
77250;BME280;66287;42.658;27.568;2023-07-29T10:07:36;99822.63;;;38.55;17.85
77250;BME280;66287;42.658;27.568;2023-07-29T10:10:02;99815.69;;;38.38;18.44
77250;BME280;66287;42.658;27.568;2023-07-29T10:12:30;99812.88;;;38.45;18.22
77250;BME280;66287;42.658;27.568;2023-07-29T10:14:55;99807.19;;;38.31;18.58
77250;BME280;66287;42.658;27.568;2023-07-29T10:17:24;99802.69;;;38.16;17.83
77250;BME280;66287;42.658;27.568;2023-07-29T10:19:51;99807.56;;;38.26;18.32
77250;BME280;66287;42.658;27.568;2023-07-29T10:22:17;99812.06;;;38.41;18.78
77250;BME280;66287;42.658;27.568;2023-07-29T10:24:45;99806.78;;;38.29;17.56
77250;BME280;66287;42.658;27.568;2023-07-29T10:27:12;99807.16;;;38.24;17.22
77250;BME280;66287;42.658;27.568;2023-07-29T10:29:39;99811.63;;;38.29;19.67
77250;BME280;66287;42.658;27.568;2023-07-29T10:32:08;99801.53;;;38.31;19.83
77250;BME280;66287;42.658;27.568;2023-07-29T10:34:36;99800.81;;;38.55;18.98
77250;BME280;66287;42.658;27.568;2023-07-29T10:37:01;99796.38;;;38.72;18.96
77250;BME280;66287;42.658;27.568;2023-07-29T10:39:27;99800.03;;;38.73;18.35
77250;BME280;66287;42.658;27.568;2023-07-29T10:42:02;99801.22;;;38.65;17.64
77250;BME280;66287;42.658;27.568;2023-07-29T10:47:14;99803.28;;;38.75;17.78
77250;BME280;66287;42.658;27.568;2023-07-29T10:49:42;99804.91;;;38.76;17.78
77250;BME280;66287;42.658;27.568;2023-07-29T10:52:08;99809.75;;;38.72;16.95
77250;BME280;66287;42.658;27.568;2023-07-29T10:54:51;99806.13;;;38.75;17.56
77250;BME280;66287;42.658;27.568;2023-07-29T10:57:32;99798.03;;;38.77;19.33
77250;BME280;66287;42.658;27.568;2023-07-29T10:59:58;99793.94;;;38.81;18.78
77250;BME280;66287;42.658;27.568;2023-07-29T11:04:55;99796.31;;;38.47;17.81
77250;BME280;66287;42.658;27.568;2023-07-29T11:07:21;99793.50;;;38.58;18.00
77250;BME280;66287;42.658;27.568;2023-07-29T11:14:59;99788.19;;;38.32;16.56
77250;BME280;66287;42.658;27.568;2023-07-29T11:17:27;99790.66;;;38.54;18.27
77250;BME280;66287;42.658;27.568;2023-07-29T11:19:52;99793.50;;;38.51;18.99
77250;BME280;66287;42.658;27.568;2023-07-29T11:22:19;99795.88;;;38.42;20.13
77250;BME280;66287;42.658;27.568;2023-07-29T11:24:45;99779.28;;;38.40;19.72
77250;BME280;66287;42.658;27.568;2023-07-29T11:27:11;99789.84;;;38.47;20.03
77250;BME280;66287;42.658;27.568;2023-07-29T11:29:36;99782.94;;;38.44;21.11
77250;BME280;66287;42.658;27.568;2023-07-29T11:32:02;99792.25;;;38.45;22.21
77250;BME280;66287;42.658;27.568;2023-07-29T11:34:33;99780.13;;;38.51;21.09
77250;BME280;66287;42.658;27.568;2023-07-29T11:36:59;99785.38;;;38.46;20.61
77250;BME280;66287;42.658;27.568;2023-07-29T11:39:25;99783.72;;;38.27;22.14
77250;BME280;66287;42.658;27.568;2023-07-29T11:41:50;99781.59;;;38.10;22.52
77250;BME280;66287;42.658;27.568;2023-07-29T11:44:19;99777.94;;;38.02;22.56
77250;BME280;66287;42.658;27.568;2023-07-29T11:46:44;99779.06;;;37.76;22.62
77250;BME280;66287;42.658;27.568;2023-07-29T11:49:10;99780.31;;;37.89;22.50
77250;BME280;66287;42.658;27.568;2023-07-29T11:51:38;99786.78;;;37.90;23.37
77250;BME280;66287;42.658;27.568;2023-07-29T11:54:04;99784.13;;;37.53;22.97
77250;BME280;66287;42.658;27.568;2023-07-29T11:56:30;99784.72;;;37.76;23.72
77250;BME280;66287;42.658;27.568;2023-07-29T11:58:55;99783.91;;;37.76;22.51
77250;BME280;66287;42.658;27.568;2023-07-29T12:01:21;99779.06;;;37.76;22.25
77250;BME280;66287;42.658;27.568;2023-07-29T12:03:47;99779.31;;;37.60;21.35
77250;BME280;66287;42.658;27.568;2023-07-29T12:06:13;99783.88;;;37.72;23.22
77250;BME280;66287;42.658;27.568;2023-07-29T12:08:39;99775.66;;;37.53;21.92
77250;BME280;66287;42.658;27.568;2023-07-29T12:11:04;99771.72;;;37.68;23.52
77250;BME280;66287;42.658;27.568;2023-07-29T12:13:30;99764.91;;;37.83;23.45
77250;BME280;66287;42.658;27.568;2023-07-29T12:16:04;99762.47;;;37.78;24.08
77250;BME280;66287;42.658;27.568;2023-07-29T12:18:32;99763.66;;;37.70;21.99
77250;BME280;66287;42.658;27.568;2023-07-29T12:20:58;99758.25;;;37.47;21.87
77250;BME280;66287;42.658;27.568;2023-07-29T12:23:26;99754.59;;;37.47;22.58
77250;BME280;66287;42.658;27.568;2023-07-29T12:25:56;99765.09;;;37.46;23.12
77250;BME280;66287;42.658;27.568;2023-07-29T12:28:22;99756.28;;;37.55;23.59
77250;BME280;66287;42.658;27.568;2023-07-29T12:30:48;99759.88;;;37.48;23.79
77250;BME280;66287;42.658;27.568;2023-07-29T12:33:34;99759.09;;;37.55;23.40
77250;BME280;66287;42.658;27.568;2023-07-29T12:35:59;99761.22;;;37.69;24.24
77250;BME280;66287;42.658;27.568;2023-07-29T12:38:27;99755.47;;;37.58;23.95
77250;BME280;66287;42.658;27.568;2023-07-29T12:40:53;99755.47;;;37.58;24.23
77250;BME280;66287;42.658;27.568;2023-07-29T12:43:18;99766.03;;;37.65;24.61
77250;BME280;66287;42.658;27.568;2023-07-29T12:45:44;99756.97;;;37.38;23.87
77250;BME280;66287;42.658;27.568;2023-07-29T12:48:10;99754.53;;;37.33;24.39